Time;durP1;ratioP1;P1;durP2;ratioP2;P2;SDS_P1;SDS_P2;PMS_P1;PMS_P2;Temp;Humidity;BMP_temperature;BMP_pressure;BME280_temperature;BME280_humidity;BME280_pressure;Samples;Min_cycle;Max_cycle;Signal;HPM_P1;HPM_P2
2020/12/14 00:00:13;;;;;;;2.80;0.85;;;24.20;31.00;;;;;;5033457;28;20340;-49
2020/12/14 00:02:40;;;;;;;2.33;0.88;;;24.20;31.10;;;;;;5032919;28;20056;-50
2020/12/14 00:05:08;;;;;;;1.63;0.90;;;24.20;31.10;;;;;;5033567;28;20049;-50
2020/12/14 00:07:36;;;;;;;1.98;1.15;;;24.20;31.20;;;;;;5031697;28;20022;-50
2020/12/14 00:10:04;;;;;;;2.20;0.80;;;24.10;31.20;;;;;;5033161;28;20057;-53
2020/12/14 00:12:30;;;;;;;1.30;0.70;;;24.10;31.30;;;;;;5032845;28;20051;-49
2020/12/14 00:14:56;;;;;;;3.45;0.90;;;24.10;31.30;;;;;;5035400;28;20463;-51
2020/12/14 00:17:23;;;;;;;2.75;1.02;;;24.10;31.30;;;;;;5031946;28;20479;-50
2020/12/14 00:19:50;;;;;;;1.80;0.75;;;24.10;31.40;;;;;;5015179;28;20361;-52
2020/12/14 00:22:16;;;;;;;2.78;1.02;;;24.10;31.40;;;;;;5032543;28;20029;-49
2020/12/14 00:24:43;;;;;;;1.55;0.60;;;24.00;31.40;;;;;;5035283;28;20455;-48
2020/12/14 00:27:11;;;;;;;1.23;0.63;;;24.00;31.30;;;;;;5014963;28;20037;-49
2020/12/14 00:29:37;;;;;;;2.10;0.95;;;24.00;31.30;;;;;;5032500;28;20033;-48
2020/12/14 00:32:04;;;;;;;2.28;0.80;;;24.00;31.30;;;;;;5032732;28;20017;-47
2020/12/14 00:34:31;;;;;;;1.80;0.80;;;24.00;31.40;;;;;;5031188;28;20029;-49
2020/12/14 00:36:58;;;;;;;1.70;0.98;;;24.00;31.40;;;;;;5030148;28;20021;-50
2020/12/14 00:39:24;;;;;;;0.95;0.60;;;23.90;31.40;;;;;;5031830;28;20107;-52
2020/12/14 00:41:51;;;;;;;1.77;0.90;;;23.90;31.40;;;;;;5032610;28;20056;-53
2020/12/14 00:44:17;;;;;;;2.05;0.98;;;23.90;31.50;;;;;;5032989;28;20095;-51
2020/12/14 00:46:46;;;;;;;2.25;1.00;;;23.90;31.50;;;;;;5031788;28;20101;-49
2020/12/14 00:49:13;;;;;;;1.05;0.63;;;23.90;31.50;;;;;;5032739;28;20014;-52
2020/12/14 00:51:39;;;;;;;1.90;0.90;;;23.90;31.60;;;;;;5034264;28;20025;-50
2020/12/14 00:54:07;;;;;;;1.65;0.80;;;23.80;31.50;;;;;;5035102;28;20114;-50
2020/12/14 00:56:34;;;;;;;2.03;0.85;;;23.80;31.50;;;;;;5031534;28;20108;-51
2020/12/14 00:59:02;;;;;;;1.95;0.90;;;23.80;31.50;;;;;;5031858;28;20021;-48
2020/12/14 01:01:29;;;;;;;2.10;0.90;;;23.80;31.60;;;;;;5034830;28;20115;-47
2020/12/14 01:03:56;;;;;;;1.67;0.90;;;23.70;31.50;;;;;;5032147;28;20429;-51
2020/12/14 01:06:23;;;;;;;1.52;0.80;;;23.80;31.60;;;;;;5016175;28;20108;-52
2020/12/14 01:08:50;;;;;;;2.63;1.10;;;23.80;31.60;;;;;;5034110;28;20028;-49
2020/12/14 01:11:16;;;;;;;1.40;0.68;;;23.70;31.50;;;;;;5031996;28;20357;-46
2020/12/14 01:13:45;;;;;;;1.50;0.70;;;23.70;31.60;;;;;;5014416;28;20045;-48
2020/12/14 01:16:12;;;;;;;2.55;1.02;;;23.60;31.50;;;;;;5034516;28;20029;-52
2020/12/14 01:18:39;;;;;;;1.58;0.77;;;23.70;31.60;;;;;;5016615;28;20457;-48
2020/12/14 01:21:06;;;;;;;3.33;1.00;;;23.70;31.70;;;;;;5022351;28;20124;-48
2020/12/14 01:23:34;;;;;;;1.95;0.90;;;23.70;31.60;;;;;;5035076;28;20025;-52
2020/12/14 01:26:01;;;;;;;2.03;0.70;;;23.60;31.50;;;;;;5033896;28;20017;-48
2020/12/14 01:28:28;;;;;;;1.50;0.73;;;23.60;31.50;;;;;;5031072;28;20017;-49
2020/12/14 01:30:55;;;;;;;1.73;0.80;;;23.60;31.50;;;;;;5031738;28;20385;-48
2020/12/14 01:33:22;;;;;;;1.52;0.80;;;23.60;31.60;;;;;;5016421;28;20033;-48
2020/12/14 01:35:48;;;;;;;1.50;0.75;;;23.60;31.60;;;;;;4999679;28;20038;-50
2020/12/14 01:38:15;;;;;;;1.92;0.90;;;23.50;31.60;;;;;;5009812;28;20032;-51
2020/12/14 01:40:41;;;;;;;1.65;0.80;;;23.50;31.70;;;;;;5011881;28;20033;-49
2020/12/14 01:43:08;;;;;;;1.50;0.65;;;23.50;31.70;;;;;;5011128;28;20033;-52
2020/12/14 01:45:34;;;;;;;1.35;0.70;;;23.50;31.70;;;;;;5011860;28;20092;-50
2020/12/14 01:48:04;;;;;;;2.97;1.10;;;23.50;31.70;;;;;;5012530;28;20033;-45
2020/12/14 01:50:30;;;;;;;1.65;0.73;;;23.50;31.70;;;;;;5012598;28;20052;-49
2020/12/14 01:53:00;;;;;;;1.48;0.90;;;23.50;31.80;;;;;;5014100;28;20123;-49
2020/12/14 01:55:33;;;;;;;1.08;0.63;;;23.40;31.70;;;;;;4998505;28;20180;-50
2020/12/14 01:57:59;;;;;;;1.90;0.80;;;23.50;31.80;;;;;;5013868;28;20026;-50
2020/12/14 02:00:26;;;;;;;2.03;0.80;;;23.50;31.80;;;;;;5015558;28;20112;-49
2020/12/14 02:02:53;;;;;;;1.48;0.65;;;23.40;31.80;;;;;;5017336;28;20416;-48
2020/12/14 02:05:20;;;;;;;1.52;0.70;;;23.40;31.80;;;;;;5000632;28;20041;-48
2020/12/14 02:07:47;;;;;;;2.05;0.80;;;23.40;31.80;;;;;;5017138;28;20030;-47
2020/12/14 02:10:14;;;;;;;1.92;0.80;;;23.40;31.80;;;;;;5015256;28;20038;-49
2020/12/14 02:12:41;;;;;;;1.13;0.70;;;23.40;31.80;;;;;;4998346;28;20453;-51
2020/12/14 02:15:08;;;;;;;1.90;0.60;;;23.40;31.80;;;;;;5014220;28;20032;-51
2020/12/14 02:17:35;;;;;;;1.38;0.70;;;23.40;31.80;;;;;;5015814;28;20022;-50
2020/12/14 02:20:05;;;;;;;1.23;0.60;;;23.30;31.80;;;;;;5015900;28;20084;-46
2020/12/14 02:22:32;;;;;;;1.25;0.52;;;23.30;31.80;;;;;;5015906;28;20418;-46
2020/12/14 02:25:05;;;;;;;1.75;0.70;;;23.30;31.80;;;;;;5016255;28;20033;-48
2020/12/14 02:27:33;;;;;;;1.02;0.60;;;23.30;31.90;;;;;;5015853;28;20030;-46
2020/12/14 02:30:00;;;;;;;1.42;0.50;;;23.30;31.90;;;;;;5014966;28;20045;-52
2020/12/14 02:32:27;;;;;;;1.25;0.60;;;23.30;31.90;;;;;;5015664;28;20037;-50
2020/12/14 02:34:54;;;;;;;1.17;0.55;;;23.30;31.90;;;;;;5019051;28;20041;-52
2020/12/14 02:37:26;;;;;;;1.33;0.70;;;23.30;31.90;;;;;;5036031;28;20025;-46
2020/12/14 02:39:53;;;;;;;1.48;0.70;;;23.30;32.00;;;;;;5017450;28;20112;-48
2020/12/14 02:42:22;;;;;;;1.42;0.60;;;23.30;32.00;;;;;;5024855;28;20098;-46
2020/12/14 02:44:49;;;;;;;1.90;0.70;;;23.20;32.00;;;;;;5016970;28;20021;-48
2020/12/14 02:47:16;;;;;;;1.92;0.90;;;23.20;32.00;;;;;;5034322;28;20095;-48
2020/12/14 02:49:43;;;;;;;1.45;0.63;;;23.20;32.00;;;;;;5035354;28;20388;-47
2020/12/14 02:52:11;;;;;;;2.20;1.00;;;23.20;32.00;;;;;;5036016;28;20025;-49
2020/12/14 02:54:38;;;;;;;1.30;0.68;;;23.20;32.00;;;;;;5034955;28;20029;-52
2020/12/14 02:57:05;;;;;;;3.45;0.68;;;23.20;32.00;;;;;;5035053;28;20033;-51
2020/12/14 02:59:35;;;;;;;1.85;0.70;;;23.20;32.00;;;;;;5033034;28;20053;-48
2020/12/14 03:02:02;;;;;;;1.67;0.70;;;23.20;32.00;;;;;;5033340;28;20037;-51
2020/12/14 03:04:28;;;;;;;2.60;1.13;;;23.20;32.00;;;;;;5035708;28;20033;-50
2020/12/14 03:06:55;;;;;;;1.40;0.45;;;23.20;32.10;;;;;;5037220;28;20365;-50
2020/12/14 03:09:22;;;;;;;0.98;0.50;;;23.10;32.10;;;;;;5034750;28;20184;-55
2020/12/14 03:11:50;;;;;;;1.83;0.77;;;23.10;32.10;;;;;;5034353;28;20468;-52
2020/12/14 03:14:17;;;;;;;2.55;0.60;;;23.10;32.10;;;;;;5034345;28;20017;-51
2020/12/14 03:16:48;;;;;;;0.88;0.50;;;23.10;32.10;;;;;;5035233;28;20425;-54
2020/12/14 03:19:15;;;;;;;1.55;0.65;;;23.10;32.20;;;;;;5034132;28;20025;-49
2020/12/14 03:21:42;;;;;;;1.10;0.60;;;23.10;32.20;;;;;;5034580;28;20025;-51
2020/12/14 03:24:09;;;;;;;0.98;0.60;;;23.10;32.20;;;;;;5017772;28;20034;-47
2020/12/14 03:26:36;;;;;;;1.83;0.60;;;23.10;32.20;;;;;;5034615;28;20048;-54
2020/12/14 03:29:03;;;;;;;2.25;0.95;;;23.10;32.20;;;;;;5034385;28;20022;-54
2020/12/14 03:31:30;;;;;;;2.00;0.63;;;23.10;32.30;;;;;;5017664;28;20095;-53
2020/12/14 03:33:57;;;;;;;1.02;0.60;;;23.00;32.30;;;;;;5034650;28;20091;-49
2020/12/14 03:36:25;;;;;;;1.77;0.70;;;23.00;32.20;;;;;;5016608;28;20491;-51
2020/12/14 03:38:52;;;;;;;1.80;0.80;;;23.00;32.30;;;;;;5015204;28;20501;-49
2020/12/14 03:41:20;;;;;;;1.50;0.80;;;23.00;32.30;;;;;;5033889;28;20087;-50
2020/12/14 03:43:47;;;;;;;2.30;0.80;;;23.00;32.30;;;;;;5034719;28;20448;-54
2020/12/14 03:46:21;;;;;;;1.83;0.70;;;23.00;32.40;;;;;;5034031;28;20422;-50
2020/12/14 03:48:48;;;;;;;0.75;0.50;;;23.00;32.40;;;;;;5014689;28;20468;-49
2020/12/14 03:51:14;;;;;;;2.10;0.60;;;23.00;32.50;;;;;;5034251;28;20037;-51
2020/12/14 03:53:41;;;;;;;1.20;0.68;;;23.00;32.50;;;;;;5033612;28;20076;-52
2020/12/14 03:56:07;;;;;;;1.20;0.60;;;23.00;32.50;;;;;;5033477;28;20056;-53
2020/12/14 03:58:33;;;;;;;1.55;0.70;;;23.00;32.50;;;;;;5033322;28;20030;-52
2020/12/14 04:01:00;;;;;;;1.77;0.80;;;22.90;32.50;;;;;;5016284;28;20025;-45
2020/12/14 04:03:26;;;;;;;1.55;0.60;;;23.00;32.60;;;;;;5016611;28;20060;-53
2020/12/14 04:05:53;;;;;;;1.02;0.60;;;22.90;32.60;;;;;;5033654;28;20453;-51
2020/12/14 04:08:19;;;;;;;1.10;0.50;;;22.90;32.60;;;;;;5033880;28;20029;-50
2020/12/14 04:10:46;;;;;;;2.65;0.75;;;22.90;32.70;;;;;;5033354;28;20362;-51
2020/12/14 04:13:12;;;;;;;1.45;0.60;;;22.90;32.70;;;;;;5033771;28;20079;-49
2020/12/14 04:15:38;;;;;;;1.58;0.50;;;22.90;32.80;;;;;;5033595;28;20033;-52
2020/12/14 04:18:05;;;;;;;1.23;0.60;;;22.90;32.80;;;;;;5035179;28;20433;-48
2020/12/14 04:20:31;;;;;;;1.70;0.55;;;22.90;32.90;;;;;;5033070;28;20112;-52
2020/12/14 04:22:58;;;;;;;1.00;0.57;;;22.90;32.90;;;;;;5017640;28;20029;-50
2020/12/14 04:25:25;;;;;;;1.42;0.70;;;22.90;32.90;;;;;;5033543;28;20087;-49
2020/12/14 04:27:51;;;;;;;1.27;0.80;;;22.80;32.90;;;;;;5008135;28;20346;-52
2020/12/14 04:30:18;;;;;;;1.00;0.50;;;22.90;33.00;;;;;;5033573;28;20416;-48
2020/12/14 04:32:46;;;;;;;0.88;0.50;;;22.90;33.00;;;;;;5033532;28;20037;-52
2020/12/14 04:35:12;;;;;;;3.22;0.60;;;22.80;33.00;;;;;;5018217;28;20042;-52
2020/12/14 04:37:39;;;;;;;1.23;0.60;;;22.80;33.00;;;;;;5013713;28;20083;-49
2020/12/14 04:40:06;;;;;;;1.00;0.47;;;22.80;33.10;;;;;;4995701;28;20040;-51
2020/12/14 04:42:33;;;;;;;1.13;0.70;;;22.80;33.10;;;;;;5014637;28;20038;-53
2020/12/14 04:45:01;;;;;;;1.45;0.60;;;22.80;33.10;;;;;;5011459;28;20030;-53
2020/12/14 04:47:28;;;;;;;1.17;0.50;;;22.80;33.10;;;;;;5013048;28;20373;-52
2020/12/14 04:49:58;;;;;;;1.10;0.50;;;22.80;33.20;;;;;;5010215;28;20042;-48
2020/12/14 04:52:26;;;;;;;1.42;0.55;;;22.80;33.30;;;;;;5011412;28;20097;-51
2020/12/14 04:54:53;;;;;;;3.17;0.75;;;22.80;33.30;;;;;;5014924;28;20029;-44
2020/12/14 04:57:22;;;;;;;1.38;0.55;;;22.70;33.30;;;;;;5013028;28;20056;-49
2020/12/14 04:59:51;;;;;;;1.52;0.60;;;22.80;33.40;;;;;;4987936;28;20030;-52
2020/12/14 05:02:18;;;;;;;1.38;0.65;;;22.80;33.40;;;;;;4995656;28;20357;-47
2020/12/14 05:04:44;;;;;;;0.65;0.40;;;22.70;33.40;;;;;;5008052;28;20022;-51
2020/12/14 05:07:12;;;;;;;1.63;0.60;;;22.70;33.40;;;;;;4995304;28;20357;-50
2020/12/14 05:09:43;;;;;;;1.25;0.57;;;22.70;33.40;;;;;;4994848;28;20400;-48
2020/12/14 05:12:20;;;;;;;1.02;0.68;;;22.70;33.50;;;;;;5012912;28;20022;-48
2020/12/14 05:14:46;;;;;;;1.45;0.50;;;22.70;33.50;;;;;;5013315;28;20036;-50
2020/12/14 05:17:24;;;;;;;1.13;0.50;;;22.70;33.60;;;;;;5012414;28;20026;-49
2020/12/14 05:19:51;;;;;;;1.50;0.68;;;22.70;33.60;;;;;;5013304;28;20120;-51
2020/12/14 05:22:17;;;;;;;1.55;0.60;;;22.70;33.60;;;;;;5012944;28;20030;-48
2020/12/14 05:24:49;;;;;;;1.67;0.60;;;22.70;33.70;;;;;;5011083;28;20044;-50
2020/12/14 05:27:34;;;;;;;0.82;0.50;;;22.70;33.70;;;;;;5012498;28;20037;-50
2020/12/14 05:30:11;;;;;;;1.52;0.70;;;22.70;33.70;;;;;;5010024;28;20484;-48
2020/12/14 05:32:38;;;;;;;0.75;0.50;;;22.70;33.70;;;;;;5013390;28;20022;-48
2020/12/14 05:35:13;;;;;;;0.85;0.50;;;22.60;33.80;;;;;;4994261;28;20063;-49
2020/12/14 05:37:41;;;;;;;1.52;0.60;;;22.70;33.80;;;;;;5010545;28;20107;-49
2020/12/14 05:40:11;;;;;;;0.88;0.50;;;22.60;33.80;;;;;;5011927;28;20453;-52
2020/12/14 05:42:42;;;;;;;1.63;0.52;;;22.60;33.80;;;;;;5012124;28;20033;-48
2020/12/14 05:45:12;;;;;;;2.42;0.60;;;22.60;33.90;;;;;;5013182;28;20033;-52
2020/12/14 05:47:42;;;;;;;1.10;0.70;;;22.60;33.90;;;;;;5012062;28;20030;-45
2020/12/14 05:50:10;;;;;;;1.73;0.50;;;22.60;33.90;;;;;;5009458;28;20033;-48
2020/12/14 05:52:48;;;;;;;1.48;0.70;;;22.60;34.00;;;;;;5011571;28;20026;-49
2020/12/14 05:55:21;;;;;;;1.52;0.70;;;22.60;34.00;;;;;;5011170;28;20022;-48
2020/12/14 05:57:51;;;;;;;2.10;0.55;;;22.60;34.00;;;;;;5012142;28;20037;-46
2020/12/14 06:00:20;;;;;;;1.23;0.50;;;22.60;34.00;;;;;;5011627;28;20026;-53
2020/12/14 06:02:48;;;;;;;0.68;0.55;;;22.60;34.10;;;;;;5012617;28;20070;-49
2020/12/14 06:05:17;;;;;;;1.13;0.60;;;22.60;34.10;;;;;;5012585;28;20353;-47
2020/12/14 06:07:56;;;;;;;1.58;0.63;;;22.50;34.10;;;;;;5012975;28;20099;-49
2020/12/14 06:10:27;;;;;;;0.73;0.50;;;22.50;34.10;;;;;;5009946;28;20132;-53
2020/12/14 06:13:06;;;;;;;1.45;0.60;;;22.60;34.20;;;;;;5010735;28;20018;-50
2020/12/14 06:15:34;;;;;;;1.98;0.60;;;22.50;34.20;;;;;;5012139;28;20032;-49
2020/12/14 06:18:02;;;;;;;1.45;0.75;;;22.50;34.20;;;;;;5012102;28;20423;-51
2020/12/14 06:20:29;;;;;;;0.70;0.50;;;22.50;34.20;;;;;;5012867;28;20050;-51
2020/12/14 06:23:04;;;;;;;1.67;0.70;;;22.50;34.20;;;;;;5011870;28;20034;-52
2020/12/14 06:25:31;;;;;;;1.70;0.77;;;22.50;34.20;;;;;;5010061;28;20112;-46
2020/12/14 06:28:27;;;;;;;0.95;0.52;;;22.50;34.20;;;;;;4986769;28;20033;-47
2020/12/14 06:30:55;;;;;;;1.65;0.70;;;22.50;34.30;;;;;;5009866;28;20046;-49
2020/12/14 06:33:51;;;;;;;1.42;0.50;;;22.50;34.30;;;;;;5008944;28;20040;-48
2020/12/14 06:36:22;;;;;;;1.23;0.60;;;22.50;34.30;;;;;;5011937;28;20118;-52
2020/12/14 06:38:51;;;;;;;1.05;0.70;;;22.50;34.40;;;;;;5036347;28;20081;-51
2020/12/14 06:41:19;;;;;;;0.93;0.60;;;22.50;34.40;;;;;;5035388;28;20037;-50
2020/12/14 06:43:47;;;;;;;1.00;0.52;;;22.40;35.00;;;;;;5035164;28;20047;-50
2020/12/14 06:46:14;;;;;;;0.80;0.40;;;22.40;34.40;;;;;;5035284;28;20072;-51
2020/12/14 06:48:45;;;;;;;1.38;0.52;;;22.50;34.50;;;;;;5035235;28;20120;-51
2020/12/14 06:51:16;;;;;;;1.38;0.50;;;22.50;34.50;;;;;;5036020;28;20043;-48
2020/12/14 06:53:50;;;;;;;1.92;0.50;;;22.40;34.50;;;;;;5032815;28;20045;-51
2020/12/14 06:56:26;;;;;;;1.83;0.60;;;22.40;34.50;;;;;;5035905;28;20527;-50
2020/12/14 06:58:54;;;;;;;1.23;0.57;;;22.50;34.50;;;;;;5034688;28;20030;-48
2020/12/14 07:01:38;;;;;;;0.80;0.50;;;22.40;34.50;;;;;;5035137;28;20033;-47
2020/12/14 07:04:16;;;;;;;1.08;0.50;;;22.40;34.50;;;;;;5034529;28;20040;-51
2020/12/14 07:06:43;;;;;;;0.85;0.50;;;22.40;34.60;;;;;;5032300;28;20044;-48
2020/12/14 07:09:31;;;;;;;0.98;0.52;;;22.40;34.60;;;;;;5034747;28;20087;-49
2020/12/14 07:12:10;;;;;;;0.80;0.50;;;22.40;34.60;;;;;;5031859;28;20361;-49
2020/12/14 07:14:47;;;;;;;1.30;0.40;;;22.40;34.60;;;;;;5008453;28;20053;-49
2020/12/14 07:17:28;;;;;;;1.77;0.50;;;22.40;34.70;;;;;;5032498;28;20548;-48
2020/12/14 07:19:56;;;;;;;1.77;0.50;;;22.40;34.70;;;;;;5033683;28;20041;-46
2020/12/14 07:22:24;;;;;;;1.25;0.60;;;22.40;34.70;;;;;;5033897;28;20037;-52
2020/12/14 07:25:05;;;;;;;0.98;0.50;;;22.40;34.80;;;;;;5035772;28;20053;-47
2020/12/14 07:27:33;;;;;;;1.23;0.70;;;22.40;34.80;;;;;;5036232;28;20029;-52
2020/12/14 07:30:12;;;;;;;1.15;0.68;;;22.40;34.90;;;;;;5033594;28;20029;-50
2020/12/14 07:32:39;;;;;;;1.60;0.63;;;22.40;34.90;;;;;;5035706;28;20047;-48
2020/12/14 07:35:08;;;;;;;0.93;0.50;;;22.40;34.90;;;;;;5030825;28;20481;-45
2020/12/14 07:37:35;;;;;;;1.10;0.60;;;22.30;34.90;;;;;;5033959;28;20026;-50
2020/12/14 07:40:07;;;;;;;1.13;0.60;;;22.30;34.90;;;;;;5034545;28;20032;-49
2020/12/14 07:42:36;;;;;;;1.77;0.65;;;22.30;34.90;;;;;;5033388;28;20421;-50
2020/12/14 07:45:23;;;;;;;1.45;0.47;;;22.30;34.90;;;;;;5034211;28;20026;-50
2020/12/14 07:47:52;;;;;;;2.25;0.50;;;22.40;35.00;;;;;;5033575;28;20030;-53
2020/12/14 07:50:27;;;;;;;0.65;0.47;;;22.30;35.00;;;;;;5032860;28;20459;-53
2020/12/14 07:52:54;;;;;;;1.77;0.60;;;22.30;35.10;;;;;;5031087;28;20096;-54
2020/12/14 07:55:27;;;;;;;2.85;0.60;;;22.30;35.30;;;;;;5033484;28;20041;-57
2020/12/14 07:57:55;;;;;;;3.15;0.50;;;22.40;35.40;;;;;;5016479;28;20385;-53
2020/12/14 08:00:26;;;;;;;1.95;0.65;;;22.40;35.40;;;;;;5033251;28;20091;-55
2020/12/14 08:03:05;;;;;;;1.27;0.50;;;22.40;36.10;;;;;;5031785;28;20036;-53
2020/12/14 08:05:32;;;;;;;1.50;0.60;;;22.50;35.40;;;;;;5033468;28;20036;-53
2020/12/14 08:08:04;;;;;;;1.33;0.50;;;22.50;35.40;;;;;;5033746;28;20022;-54
2020/12/14 08:10:32;;;;;;;1.40;0.60;;;22.60;35.40;;;;;;5028480;28;20179;-55
2020/12/14 08:13:01;;;;;;;2.38;0.70;;;22.60;35.40;;;;;;5031564;28;20029;-53
2020/12/14 08:15:30;;;;;;;1.05;0.57;;;22.70;35.30;;;;;;5032332;28;20083;-53
2020/12/14 08:17:59;;;;;;;0.68;0.50;;;22.70;35.30;;;;;;5034044;28;20021;-51
2020/12/14 08:20:30;;;;;;;2.00;0.80;;;22.80;35.30;;;;;;5032292;28;20041;-52
2020/12/14 08:23:01;;;;;;;1.30;0.57;;;22.90;35.20;;;;;;5032548;28;20033;-51
2020/12/14 08:25:31;;;;;;;0.80;0.40;;;22.90;35.20;;;;;;5032359;28;20021;-50
2020/12/14 08:28:02;;;;;;;2.47;0.60;;;23.00;35.10;;;;;;5033907;28;20075;-52
2020/12/14 08:30:31;;;;;;;1.15;0.60;;;23.00;35.10;;;;;;5032613;28;20579;-48
2020/12/14 08:33:19;;;;;;;1.58;0.68;;;23.10;35.10;;;;;;5034724;28;20034;-50
2020/12/14 08:35:47;;;;;;;2.47;0.52;;;23.20;35.10;;;;;;5023831;28;20050;-50
2020/12/14 08:38:16;;;;;;;1.45;0.70;;;23.20;35.10;;;;;;5033225;28;20456;-53
2020/12/14 08:41:05;;;;;;;1.30;0.47;;;23.30;35.10;;;;;;5014306;28;20107;-53
2020/12/14 08:43:35;;;;;;;1.55;0.77;;;23.30;35.00;;;;;;5030770;28;20185;-49
2020/12/14 08:46:15;;;;;;;1.13;0.50;;;23.30;35.00;;;;;;5032663;28;20378;-50
2020/12/14 08:48:51;;;;;;;2.08;0.63;;;23.40;35.00;;;;;;5033370;28;20033;-48
2020/12/14 08:51:23;;;;;;;0.90;0.40;;;23.40;34.90;;;;;;5029642;28;20037;-49
2020/12/14 08:53:51;;;;;;;0.95;0.55;;;23.40;34.80;;;;;;5032330;28;20138;-52
2020/12/14 08:56:19;;;;;;;0.95;0.60;;;23.40;34.80;;;;;;5015225;28;20033;-52
2020/12/14 08:58:46;;;;;;;1.70;0.52;;;23.50;34.90;;;;;;5032868;28;20353;-51
2020/12/14 09:01:12;;;;;;;1.50;0.60;;;23.40;34.90;;;;;;5032994;28;20041;-52
2020/12/14 09:03:57;;;;;;;1.30;0.55;;;23.50;35.00;;;;;;5035203;28;20033;-49
2020/12/14 09:06:27;;;;;;;1.45;0.55;;;23.50;35.00;;;;;;5033756;28;20110;-51
2020/12/14 09:09:05;;;;;;;0.52;0.47;;;23.50;35.00;;;;;;5032844;28;20064;-50
2020/12/14 09:11:33;;;;;;;0.98;0.50;;;23.50;35.10;;;;;;5030336;28;20045;-51
2020/12/14 09:14:01;;;;;;;1.25;0.60;;;23.50;35.10;;;;;;5031834;28;20041;-53
2020/12/14 09:16:27;;;;;;;4.55;0.70;;;23.50;35.10;;;;;;5029175;28;20037;-52
2020/12/14 09:18:54;;;;;;;1.02;0.50;;;23.50;35.10;;;;;;5014570;28;20095;-52
2020/12/14 09:21:19;;;;;;;0.65;0.30;;;23.50;35.10;;;;;;5032717;28;20140;-50
2020/12/14 09:24:09;;;;;;;0.60;0.30;;;23.50;35.10;;;;;;5030694;28;20029;-52
2020/12/14 09:26:35;;;;;;;1.02;0.40;;;23.50;35.10;;;;;;5029892;28;20033;-52
2020/12/14 09:29:01;;;;;;;1.33;0.60;;;23.50;35.20;;;;;;5034500;28;20035;-54
2020/12/14 09:31:27;;;;;;;1.42;0.70;;;23.50;35.20;;;;;;5032253;28;20052;-51
2020/12/14 09:33:53;;;;;;;0.90;0.50;;;23.50;35.20;;;;;;5032198;28;20322;-51
2020/12/14 09:36:19;;;;;;;0.68;0.47;;;23.50;35.30;;;;;;5031215;28;20052;-52
2020/12/14 09:38:46;;;;;;;0.68;0.40;;;23.50;35.30;;;;;;5014052;28;20033;-51
2020/12/14 09:41:13;;;;;;;0.45;0.35;;;23.50;35.30;;;;;;5032261;28;20448;-52
2020/12/14 09:43:38;;;;;;;0.70;0.50;;;23.50;35.30;;;;;;5031867;28;20507;-51
2020/12/14 09:46:04;;;;;;;0.88;0.50;;;23.50;35.30;;;;;;5032292;28;20038;-49
2020/12/14 09:48:30;;;;;;;0.57;0.40;;;23.50;35.30;;;;;;5031980;28;20041;-48
2020/12/14 09:50:56;;;;;;;0.57;0.30;;;23.50;35.30;;;;;;5013108;28;21849;-51
2020/12/14 09:53:21;;;;;;;0.70;0.40;;;23.50;35.30;;;;;;5031789;28;20040;-50
2020/12/14 09:55:47;;;;;;;1.50;0.52;;;23.50;35.30;;;;;;5031690;28;20037;-50
2020/12/14 09:58:13;;;;;;;0.77;0.32;;;23.50;35.30;;;;;;5032174;28;20124;-50
2020/12/14 10:00:41;;;;;;;0.45;0.30;;;23.50;35.30;;;;;;5032257;28;20025;-50
2020/12/14 10:03:07;;;;;;;0.52;0.30;;;23.50;35.30;;;;;;5030100;28;20091;-49
2020/12/14 10:05:33;;;;;;;0.80;0.50;;;23.50;35.30;;;;;;5031151;28;20045;-51
2020/12/14 10:07:59;;;;;;;0.50;0.32;;;23.50;35.30;;;;;;5034188;28;20021;-51
2020/12/14 10:10:24;;;;;;;0.60;0.30;;;23.50;36.00;;;;;;5031604;28;20037;-54
2020/12/14 10:12:50;;;;;;;2.25;0.68;;;23.50;35.30;;;;;;5033405;28;20030;-52
2020/12/14 10:15:16;;;;;;;0.63;0.40;;;23.50;35.30;;;;;;5035516;28;20032;-50
2020/12/14 10:17:42;;;;;;;1.02;0.40;;;23.50;35.30;;;;;;5035198;28;20037;-50
2020/12/14 10:20:08;;;;;;;1.10;0.43;;;23.50;35.40;;;;;;5035612;28;20052;-50
2020/12/14 10:22:34;;;;;;;0.68;0.38;;;23.50;35.40;;;;;;5037431;28;20399;-53
2020/12/14 10:25:00;;;;;;;0.45;0.40;;;23.50;35.40;;;;;;5035227;28;20021;-52
2020/12/14 10:27:27;;;;;;;0.88;0.40;;;23.40;35.40;;;;;;5017234;28;20057;-50
2020/12/14 10:29:53;;;;;;;0.82;0.40;;;23.50;35.50;;;;;;5033937;28;20459;-54
2020/12/14 10:32:19;;;;;;;0.35;0.32;;;23.50;35.50;;;;;;5035308;28;20029;-50
2020/12/14 10:34:44;;;;;;;2.55;0.52;;;23.40;35.40;;;;;;5034442;28;20314;-57
2020/12/14 10:37:10;;;;;;;0.52;0.30;;;23.50;35.50;;;;;;5035195;28;20357;-52
2020/12/14 10:39:36;;;;;;;1.23;0.52;;;23.40;35.50;;;;;;5034877;28;20026;-48
2020/12/14 10:42:02;;;;;;;0.40;0.30;;;23.40;35.50;;;;;;5035542;28;20038;-57
2020/12/14 10:44:30;;;;;;;0.77;0.20;;;23.40;35.50;;;;;;5034971;28;20037;-56
2020/12/14 10:47:02;;;;;;;0.82;0.40;;;23.40;35.60;;;;;;5035575;28;20026;-56
2020/12/14 10:49:28;;;;;;;1.40;0.70;;;23.40;35.50;;;;;;5033815;28;21429;-56
2020/12/14 10:51:53;;;;;;;0.65;0.30;;;23.50;35.40;;;;;;5034155;28;20032;-47
2020/12/14 10:54:19;;;;;;;2.90;0.40;;;23.60;35.20;;;;;;5033247;28;20034;-48
2020/12/14 10:56:45;;;;;;;0.82;0.40;;;23.80;35.10;;;;;;5030512;28;20044;-51
2020/12/14 10:59:11;;;;;;;0.57;0.32;;;23.90;35.00;;;;;;5028404;28;20076;-52
2020/12/14 11:01:37;;;;;;;0.70;0.40;;;24.00;34.90;;;;;;5034521;28;20053;-53
2020/12/14 11:04:03;;;;;;;0.60;0.40;;;24.00;34.80;;;;;;5036486;28;20037;-49
2020/12/14 11:06:32;;;;;;;1.95;0.30;;;24.10;34.70;;;;;;5035216;28;20035;-50
2020/12/14 11:08:58;;;;;;;0.80;0.38;;;24.20;34.60;;;;;;5031240;28;20029;-51
2020/12/14 11:11:30;;;;;;;0.82;0.40;;;24.30;34.50;;;;;;5031359;28;20064;-49
2020/12/14 11:13:56;;;;;;;1.50;0.40;;;24.30;34.40;;;;;;5039403;28;20029;-47
2020/12/14 11:16:22;;;;;;;0.52;0.30;;;24.30;34.30;;;;;;5021002;28;20048;-47
2020/12/14 11:18:48;;;;;;;0.77;0.40;;;24.30;34.30;;;;;;5032527;28;20349;-50
2020/12/14 11:21:14;;;;;;;0.68;0.30;;;24.20;34.40;;;;;;5033458;28;20099;-57
2020/12/14 11:23:39;;;;;;;0.47;0.35;;;24.20;34.10;;;;;;5031957;28;20037;-63
2020/12/14 11:26:05;;;;;;;0.43;0.25;;;24.00;32.70;;;;;;5033681;28;20119;-61
2020/12/14 11:28:31;;;;;;;1.20;0.40;;;23.50;33.30;;;;;;5033801;28;20033;-50
2020/12/14 11:30:57;;;;;;;0.38;0.28;;;23.20;34.30;;;;;;5015534;28;20037;-50
2020/12/14 11:33:22;;;;;;;0.68;0.40;;;23.00;34.80;;;;;;5030449;28;20033;-52
2020/12/14 11:35:48;;;;;;;2.00;0.50;;;22.90;35.10;;;;;;5032971;28;20130;-49
2020/12/14 11:38:15;;;;;;;0.20;0.20;;;22.90;35.40;;;;;;5034204;28;20469;-53
2020/12/14 11:40:40;;;;;;;0.98;0.60;;;22.90;35.70;;;;;;5030938;28;20080;-50
2020/12/14 11:43:07;;;;;;;0.57;0.30;;;22.90;35.90;;;;;;5032834;28;20033;-49
2020/12/14 11:45:33;;;;;;;0.60;0.30;;;22.90;36.00;;;;;;5036678;28;20047;-48
2020/12/14 11:47:58;;;;;;;0.82;0.40;;;23.00;36.10;;;;;;5032824;28;20025;-49
2020/12/14 11:50:24;;;;;;;0.63;0.30;;;23.00;36.10;;;;;;5015109;28;20144;-53
2020/12/14 11:52:50;;;;;;;2.45;0.30;;;23.00;36.10;;;;;;5033374;28;20489;-51
2020/12/14 11:55:16;;;;;;;1.02;0.50;;;23.00;36.20;;;;;;5028581;28;20071;-53
2020/12/14 11:57:41;;;;;;;0.98;0.30;;;23.00;36.30;;;;;;5034675;28;20021;-50
2020/12/14 12:00:11;;;;;;;1.23;0.40;;;23.10;36.30;;;;;;5032309;28;20112;-51
2020/12/14 12:02:36;;;;;;;1.27;0.30;;;23.10;36.30;;;;;;5031645;28;20032;-56
2020/12/14 12:05:02;;;;;;;0.50;0.40;;;23.10;36.40;;;;;;5032339;28;20437;-50
2020/12/14 12:07:29;;;;;;;0.80;0.30;;;23.10;36.50;;;;;;5041556;28;20095;-53
2020/12/14 12:09:54;;;;;;;2.25;0.40;;;23.10;36.40;;;;;;5034041;28;20158;-49
2020/12/14 12:12:21;;;;;;;0.50;0.40;;;23.10;36.50;;;;;;5030011;28;20112;-58
2020/12/14 12:14:48;;;;;;;2.15;0.25;;;23.10;36.50;;;;;;5027240;28;20056;-54
2020/12/14 12:17:14;;;;;;;1.85;0.20;;;23.10;36.60;;;;;;5037910;28;20044;-57
2020/12/14 12:19:41;;;;;;;1.30;0.40;;;23.20;36.90;;;;;;5025528;28;20444;-56
2020/12/14 12:22:08;;;;;;;0.60;0.40;;;23.20;36.90;;;;;;5031839;28;20056;-57
2020/12/14 12:24:34;;;;;;;0.30;0.28;;;23.30;37.00;;;;;;5033604;28;20037;-58
2020/12/14 12:27:01;;;;;;;0.30;0.30;;;23.30;37.10;;;;;;5033398;28;20033;-51
2020/12/14 12:29:31;;;;;;;0.90;0.30;;;23.30;37.10;;;;;;5016002;28;20392;-54
2020/12/14 12:31:58;;;;;;;0.52;0.30;;;23.40;37.00;;;;;;5033040;28;20033;-58
2020/12/14 12:34:26;;;;;;;0.90;0.40;;;23.40;37.00;;;;;;5032631;28;20037;-53
2020/12/14 12:36:54;;;;;;;0.60;0.45;;;23.40;37.00;;;;;;5030118;28;20048;-55
2020/12/14 12:39:21;;;;;;;0.70;0.40;;;23.40;36.90;;;;;;5030396;28;20497;-54
2020/12/14 12:41:49;;;;;;;0.43;0.22;;;23.50;36.90;;;;;;5031281;28;20021;-55
2020/12/14 12:44:17;;;;;;;0.73;0.38;;;23.40;36.80;;;;;;5017418;28;20021;-54
2020/12/14 12:46:44;;;;;;;1.23;0.47;;;23.50;36.80;;;;;;5034796;28;20135;-53
2020/12/14 12:49:11;;;;;;;0.88;0.50;;;23.50;36.80;;;;;;5034365;28;20068;-50
2020/12/14 12:51:42;;;;;;;1.00;0.40;;;23.50;36.80;;;;;;5009933;28;20533;-58
2020/12/14 12:54:09;;;;;;;0.40;0.30;;;23.60;36.70;;;;;;5016259;28;20029;-56